sensor_id;sensor_type;location;lat;lon;timestamp;pressure;altitude;pressure_sealevel;temperature;humidity
46718;BME280;32448;44.960;-0.698;2023-05-27T00:01:27;101589.03;;;16.76;100.00
46718;BME280;32448;44.960;-0.698;2023-05-27T00:03:57;101588.16;;;16.80;100.00
46718;BME280;32448;44.960;-0.698;2023-05-27T00:06:25;101585.53;;;16.76;100.00
46718;BME280;32448;44.960;-0.698;2023-05-27T00:08:53;101583.72;;;16.71;100.00
46718;BME280;32448;44.960;-0.698;2023-05-27T00:11:20;101587.22;;;16.66;100.00
46718;BME280;32448;44.960;-0.698;2023-05-27T00:13:48;101591.56;;;16.61;100.00
46718;BME280;32448;44.960;-0.698;2023-05-27T00:16:15;101585.44;;;16.62;100.00
46718;BME280;32448;44.960;-0.698;2023-05-27T00:18:43;101583.69;;;16.64;100.00
46718;BME280;32448;44.960;-0.698;2023-05-27T00:21:10;101580.19;;;16.63;100.00
46718;BME280;32448;44.960;-0.698;2023-05-27T00:23:38;101580.19;;;16.63;100.00
46718;BME280;32448;44.960;-0.698;2023-05-27T00:26:05;101578.38;;;16.61;100.00
46718;BME280;32448;44.960;-0.698;2023-05-27T00:28:33;101580.09;;;16.57;100.00
46718;BME280;32448;44.960;-0.698;2023-05-27T00:31:00;101575.72;;;16.55;100.00
46718;BME280;32448;44.960;-0.698;2023-05-27T00:33:27;101583.63;;;16.56;100.00
46718;BME280;32448;44.960;-0.698;2023-05-27T00:35:56;101580.06;;;16.50;100.00
46718;BME280;32448;44.960;-0.698;2023-05-27T00:38:23;101574.75;;;16.44;100.00
46718;BME280;32448;44.960;-0.698;2023-05-27T00:40:52;101572.97;;;16.41;100.00
46718;BME280;32448;44.960;-0.698;2023-05-27T00:43:20;101572.09;;;16.41;100.00
46718;BME280;32448;44.960;-0.698;2023-05-27T00:45:48;101572.06;;;16.37;100.00
46718;BME280;32448;44.960;-0.698;2023-05-27T00:48:15;101564.16;;;16.33;100.00
46718;BME280;32448;44.960;-0.698;2023-05-27T00:50:43;101564.16;;;16.34;100.00
46718;BME280;32448;44.960;-0.698;2023-05-27T00:53:10;101562.34;;;16.29;100.00
46718;BME280;32448;44.960;-0.698;2023-05-27T00:55:37;101559.66;;;16.24;100.00
46718;BME280;32448;44.960;-0.698;2023-05-27T00:58:05;101557.88;;;16.17;100.00
46718;BME280;32448;44.960;-0.698;2023-05-27T01:00:36;101557.03;;;16.20;100.00
46718;BME280;32448;44.960;-0.698;2023-05-27T01:03:06;101557.00;;;16.18;100.00
46718;BME280;32448;44.960;-0.698;2023-05-27T01:05:34;101549.97;;;16.17;100.00
46718;BME280;32448;44.960;-0.698;2023-05-27T01:10:45;101549.88;;;16.05;100.00
46718;BME280;32448;44.960;-0.698;2023-05-27T01:13:27;101550.75;;;16.01;100.00
46718;BME280;32448;44.960;-0.698;2023-05-27T01:15:59;101510.13;;;15.76;100.00
46718;BME280;32448;44.960;-0.698;2023-05-27T01:18:28;101541.03;;;15.95;100.00
46718;BME280;32448;44.960;-0.698;2023-05-27T01:21:02;101538.34;;;15.91;100.00
46718;BME280;32448;44.960;-0.698;2023-05-27T01:23:29;101532.19;;;15.89;100.00
46718;BME280;32448;44.960;-0.698;2023-05-27T01:25:58;101529.53;;;15.86;100.00
46718;BME280;32448;44.960;-0.698;2023-05-27T01:28:25;101534.75;;;15.81;100.00
46718;BME280;32448;44.960;-0.698;2023-05-27T01:30:54;101540.00;;;15.77;100.00
46718;BME280;32448;44.960;-0.698;2023-05-27T01:33:23;101536.50;;;15.78;100.00
46718;BME280;32448;44.960;-0.698;2023-05-27T01:35:55;101535.53;;;15.70;100.00
46718;BME280;32448;44.960;-0.698;2023-05-27T01:38:28;101531.13;;;15.64;100.00
46718;BME280;32448;44.960;-0.698;2023-05-27T01:40:56;101528.50;;;15.65;100.00
46718;BME280;32448;44.960;-0.698;2023-05-27T01:43:24;101528.50;;;15.67;100.00
46718;BME280;32448;44.960;-0.698;2023-05-27T01:45:51;101532.03;;;15.69;100.00
46718;BME280;32448;44.960;-0.698;2023-05-27T01:48:19;101527.66;;;15.68;100.00
46718;BME280;32448;44.960;-0.698;2023-05-27T01:50:46;101532.00;;;15.64;100.00
46718;BME280;32448;44.960;-0.698;2023-05-27T01:53:15;101524.97;;;15.63;100.00
46718;BME280;32448;44.960;-0.698;2023-05-27T01:55:42;101533.63;;;15.52;100.00
46718;BME280;32448;44.960;-0.698;2023-05-27T01:58:11;101532.75;;;15.53;100.00
46718;BME280;32448;44.960;-0.698;2023-05-27T02:00:39;101524.78;;;15.48;100.00
46718;BME280;32448;44.960;-0.698;2023-05-27T02:03:06;101538.00;;;15.53;100.00
46718;BME280;32448;44.960;-0.698;2023-05-27T02:05:34;101531.84;;;15.51;100.00
46718;BME280;32448;44.960;-0.698;2023-05-27T02:08:03;101526.56;;;15.46;100.00
46718;BME280;32448;44.960;-0.698;2023-05-27T02:10:30;101530.06;;;15.45;100.00
46718;BME280;32448;44.960;-0.698;2023-05-27T02:12:57;101529.06;;;15.37;100.00
46718;BME280;32448;44.960;-0.698;2023-05-27T02:15:24;101525.59;;;15.40;100.00
46718;BME280;32448;44.960;-0.698;2023-05-27T02:17:54;101521.16;;;15.37;100.00
46718;BME280;32448;44.960;-0.698;2023-05-27T02:20:24;101525.53;;;15.32;100.00
46718;BME280;32448;44.960;-0.698;2023-05-27T02:22:52;101521.06;;;15.25;100.00
46718;BME280;32448;44.960;-0.698;2023-05-27T02:25:19;101522.84;;;15.29;100.00
46718;BME280;32448;44.960;-0.698;2023-05-27T02:27:47;101522.81;;;15.26;100.00
46718;BME280;32448;44.960;-0.698;2023-05-27T02:30:15;101518.41;;;15.22;100.00
46718;BME280;32448;44.960;-0.698;2023-05-27T02:32:43;101518.44;;;15.23;100.00
46718;BME280;32448;44.960;-0.698;2023-05-27T02:35:13;101510.44;;;15.17;100.00
46718;BME280;32448;44.960;-0.698;2023-05-27T02:37:41;101515.72;;;15.17;100.00
46718;BME280;32448;44.960;-0.698;2023-05-27T02:40:08;101513.91;;;15.13;100.00
46718;BME280;32448;44.960;-0.698;2023-05-27T02:42:36;101510.44;;;15.13;100.00
46718;BME280;32448;44.960;-0.698;2023-05-27T02:45:04;101505.97;;;15.09;100.00
46718;BME280;32448;44.960;-0.698;2023-05-27T02:47:31;101497.13;;;15.04;100.00
46718;BME280;32448;44.960;-0.698;2023-05-27T02:49:58;101496.25;;;15.03;100.00
46718;BME280;32448;44.960;-0.698;2023-05-27T02:52:25;101498.03;;;15.06;100.00
46718;BME280;32448;44.960;-0.698;2023-05-27T02:54:53;101495.38;;;15.04;100.00
46718;BME280;32448;44.960;-0.698;2023-05-27T02:57:20;101495.38;;;15.03;100.00
46718;BME280;32448;44.960;-0.698;2023-05-27T02:59:56;101504.06;;;14.94;100.00
46718;BME280;32448;44.960;-0.698;2023-05-27T03:02:23;101487.41;;;14.95;100.00
46718;BME280;32448;44.960;-0.698;2023-05-27T03:04:53;101490.00;;;14.93;100.00
46718;BME280;32448;44.960;-0.698;2023-05-27T03:07:22;101486.50;;;14.93;100.00
46718;BME280;32448;44.960;-0.698;2023-05-27T03:09:50;101489.09;;;14.91;100.00
46718;BME280;32448;44.960;-0.698;2023-05-27T03:12:19;101484.75;;;14.90;100.00
46718;BME280;32448;44.960;-0.698;2023-05-27T03:14:47;101488.25;;;14.89;100.00
46718;BME280;32448;44.960;-0.698;2023-05-27T03:17:14;101489.94;;;14.86;100.00
46718;BME280;32448;44.960;-0.698;2023-05-27T03:19:41;101489.94;;;14.86;100.00
46718;BME280;32448;44.960;-0.698;2023-05-27T03:22:09;101489.00;;;14.82;100.00
46718;BME280;32448;44.960;-0.698;2023-05-27T03:24:36;101487.25;;;14.83;100.00
46718;BME280;32448;44.960;-0.698;2023-05-27T03:27:03;101492.53;;;14.80;100.00
46718;BME280;32448;44.960;-0.698;2023-05-27T03:29:33;101494.28;;;14.79;100.00
46718;BME280;32448;44.960;-0.698;2023-05-27T03:32:01;101495.09;;;14.75;100.00
46718;BME280;32448;44.960;-0.698;2023-05-27T03:34:30;101488.97;;;14.76;100.00
46718;BME280;32448;44.960;-0.698;2023-05-27T03:36:58;101491.53;;;14.72;100.00
46718;BME280;32448;44.960;-0.698;2023-05-27T03:39:40;101487.94;;;14.64;100.00
46718;BME280;32448;44.960;-0.698;2023-05-27T03:42:08;101499.28;;;14.61;100.00
46718;BME280;32448;44.960;-0.698;2023-05-27T03:44:36;101497.53;;;14.60;100.00
46718;BME280;32448;44.960;-0.698;2023-05-27T03:47:04;101495.63;;;14.47;100.00
46718;BME280;32448;44.960;-0.698;2023-05-27T03:49:32;101490.41;;;14.51;100.00
46718;BME280;32448;44.960;-0.698;2023-05-27T03:52:01;101487.78;;;14.51;100.00
46718;BME280;32448;44.960;-0.698;2023-05-27T03:54:29;101491.31;;;14.53;100.00
46718;BME280;32448;44.960;-0.698;2023-05-27T03:56:56;101493.00;;;14.48;100.00
46718;BME280;32448;44.960;-0.698;2023-05-27T03:59:23;101483.34;;;14.46;100.00
46718;BME280;32448;44.960;-0.698;2023-05-27T04:01:52;101481.56;;;14.45;100.00
46718;BME280;32448;44.960;-0.698;2023-05-27T04:04:19;101491.19;;;14.43;100.00
46718;BME280;32448;44.960;-0.698;2023-05-27T04:06:47;101485.94;;;14.43;100.00
46718;BME280;32448;44.960;-0.698;2023-05-27T04:09:15;101485.91;;;14.41;100.00
46718;BME280;32448;44.960;-0.698;2023-05-27T04:11:42;101483.19;;;14.38;100.00
46718;BME280;32448;44.960;-0.698;2023-05-27T04:14:10;101487.56;;;14.38;100.00
46718;BME280;32448;44.960;-0.698;2023-05-27T04:16:37;101479.63;;;14.32;100.00
46718;BME280;32448;44.960;-0.698;2023-05-27T04:19:05;101478.66;;;14.27;100.00
46718;BME280;32448;44.960;-0.698;2023-05-27T04:21:33;101476.88;;;14.23;100.00
46718;BME280;32448;44.960;-0.698;2023-05-27T04:24:02;101483.81;;;14.19;100.00
46718;BME280;32448;44.960;-0.698;2023-05-27T04:26:30;101484.63;;;14.13;100.00
46718;BME280;32448;44.960;-0.698;2023-05-27T04:28:57;101483.59;;;14.04;100.00
46718;BME280;32448;44.960;-0.698;2023-05-27T04:31:28;101488.81;;;13.99;100.00
46718;BME280;32448;44.960;-0.698;2023-05-27T04:34:03;101496.44;;;13.84;100.00
46718;BME280;32448;44.960;-0.698;2023-05-27T04:36:32;101487.81;;;13.91;100.00
46718;BME280;32448;44.960;-0.698;2023-05-27T04:39:03;101498.38;;;13.96;100.00
46718;BME280;32448;44.960;-0.698;2023-05-27T04:41:34;101494.00;;;13.96;100.00
46718;BME280;32448;44.960;-0.698;2023-05-27T04:44:08;101503.59;;;13.94;100.00
46718;BME280;32448;44.960;-0.698;2023-05-27T04:46:43;101496.66;;;13.98;100.00
46718;BME280;32448;44.960;-0.698;2023-05-27T04:49:12;101496.66;;;13.98;100.00
46718;BME280;32448;44.960;-0.698;2023-05-27T04:51:39;101497.56;;;14.00;100.00
46718;BME280;32448;44.960;-0.698;2023-05-27T04:54:07;101497.56;;;13.98;100.00
46718;BME280;32448;44.960;-0.698;2023-05-27T04:56:34;101502.84;;;14.00;100.00
46718;BME280;32448;44.960;-0.698;2023-05-27T04:59:03;101501.13;;;14.05;100.00
46718;BME280;32448;44.960;-0.698;2023-05-27T05:01:32;101495.00;;;14.04;100.00
46718;BME280;32448;44.960;-0.698;2023-05-27T05:04:23;101496.78;;;14.07;100.00
46718;BME280;32448;44.960;-0.698;2023-05-27T05:06:54;101498.59;;;14.09;100.00
46718;BME280;32448;44.960;-0.698;2023-05-27T05:09:24;101500.28;;;14.06;100.00
46718;BME280;32448;44.960;-0.698;2023-05-27T05:11:52;101445.47;;;13.73;100.00
46718;BME280;32448;44.960;-0.698;2023-05-27T05:14:19;101496.91;;;14.16;100.00
46718;BME280;32448;44.960;-0.698;2023-05-27T05:20:19;101514.50;;;14.18;100.00
46718;BME280;32448;44.960;-0.698;2023-05-27T05:22:46;101513.66;;;14.21;100.00
46718;BME280;32448;44.960;-0.698;2023-05-27T05:25:13;101516.22;;;14.16;100.00
46718;BME280;32448;44.960;-0.698;2023-05-27T05:27:47;101515.38;;;14.19;100.00
46718;BME280;32448;44.960;-0.698;2023-05-27T05:30:17;101512.72;;;14.17;100.00
46718;BME280;32448;44.960;-0.698;2023-05-27T05:32:47;101514.56;;;14.23;100.00
46718;BME280;32448;44.960;-0.698;2023-05-27T05:35:15;101517.31;;;14.32;100.00
46718;BME280;32448;44.960;-0.698;2023-05-27T05:37:56;101518.16;;;14.30;100.00
46718;BME280;32448;44.960;-0.698;2023-05-27T05:40:26;101519.81;;;14.23;100.00
46718;BME280;32448;44.960;-0.698;2023-05-27T05:43:15;101513.84;;;14.36;100.00
46718;BME280;32448;44.960;-0.698;2023-05-27T05:45:43;101510.63;;;14.54;100.00
46718;BME280;32448;44.960;-0.698;2023-05-27T05:48:10;101512.47;;;14.63;100.00
46718;BME280;32448;44.960;-0.698;2023-05-27T05:50:40;101510.88;;;14.75;100.00
46718;BME280;32448;44.960;-0.698;2023-05-27T05:53:10;101509.16;;;14.80;100.00
46718;BME280;32448;44.960;-0.698;2023-05-27T05:55:37;101512.75;;;14.85;100.00
46718;BME280;32448;44.960;-0.698;2023-05-27T05:58:05;101511.94;;;14.89;100.00
46718;BME280;32448;44.960;-0.698;2023-05-27T06:00:33;101514.63;;;14.97;100.00
46718;BME280;32448;44.960;-0.698;2023-05-27T06:03:20;101515.56;;;15.04;100.00
46718;BME280;32448;44.960;-0.698;2023-05-27T06:05:52;101513.84;;;15.06;100.00
46718;BME280;32448;44.960;-0.698;2023-05-27T06:08:19;101514.78;;;15.11;100.00
46718;BME280;32448;44.960;-0.698;2023-05-27T06:10:55;101515.72;;;15.17;100.00
46718;BME280;32448;44.960;-0.698;2023-05-27T06:13:22;101520.16;;;15.21;100.00
46718;BME280;32448;44.960;-0.698;2023-05-27T06:15:52;101509.66;;;15.27;100.00
46718;BME280;32448;44.960;-0.698;2023-05-27T06:18:19;101504.53;;;15.41;100.00
46718;BME280;32448;44.960;-0.698;2023-05-27T06:20:51;101512.66;;;15.62;100.00
46718;BME280;32448;44.960;-0.698;2023-05-27T06:23:22;101511.00;;;15.77;100.00
46718;BME280;32448;44.960;-0.698;2023-05-27T06:26:01;101508.50;;;15.95;100.00
46718;BME280;32448;44.960;-0.698;2023-05-27T06:28:34;101505.09;;;16.14;100.00
46718;BME280;32448;44.960;-0.698;2023-05-27T06:31:02;101501.69;;;16.30;100.00
46718;BME280;32448;44.960;-0.698;2023-05-27T06:33:29;101503.47;;;16.37;100.00
46718;BME280;32448;44.960;-0.698;2023-05-27T06:35:58;101498.25;;;16.51;100.00
46718;BME280;32448;44.960;-0.698;2023-05-27T06:38:27;101496.59;;;16.64;100.00
46718;BME280;32448;44.960;-0.698;2023-05-27T06:40:56;101493.97;;;16.73;100.00
46718;BME280;32448;44.960;-0.698;2023-05-27T06:43:24;101487.88;;;16.88;100.00
46718;BME280;32448;44.960;-0.698;2023-05-27T06:45:58;101489.66;;;17.02;100.00
46718;BME280;32448;44.960;-0.698;2023-05-27T06:48:51;101495.88;;;17.29;100.00
46718;BME280;32448;44.960;-0.698;2023-05-27T06:51:20;101491.47;;;17.43;100.00
46718;BME280;32448;44.960;-0.698;2023-05-27T06:53:55;101488.00;;;17.67;100.00
46718;BME280;32448;44.960;-0.698;2023-05-27T06:56:29;101483.53;;;17.67;100.00
46718;BME280;32448;44.960;-0.698;2023-05-27T06:59:17;101486.22;;;17.76;100.00
46718;BME280;32448;44.960;-0.698;2023-05-27T07:01:46;101477.28;;;18.14;100.00
46718;BME280;32448;44.960;-0.698;2023-05-27T07:04:16;101462.22;;;18.37;100.00
46718;BME280;32448;44.960;-0.698;2023-05-27T07:07:02;101469.22;;;18.52;100.00
46718;BME280;32448;44.960;-0.698;2023-05-27T07:09:32;101455.91;;;18.70;100.00
46718;BME280;32448;44.960;-0.698;2023-05-27T07:12:00;101464.63;;;18.94;100.00
46718;BME280;32448;44.960;-0.698;2023-05-27T07:14:50;101460.13;;;19.08;100.00
46718;BME280;32448;44.960;-0.698;2023-05-27T07:17:21;101458.19;;;19.30;100.00
46718;BME280;32448;44.960;-0.698;2023-05-27T07:19:50;101454.56;;;19.40;100.00
46718;BME280;32448;44.960;-0.698;2023-05-27T07:22:20;101462.44;;;19.55;100.00
46718;BME280;32448;44.960;-0.698;2023-05-27T07:24:48;101449.88;;;19.72;100.00
46718;BME280;32448;44.960;-0.698;2023-05-27T07:27:19;101456.88;;;19.79;100.00
46718;BME280;32448;44.960;-0.698;2023-05-27T07:29:55;101449.63;;;19.96;100.00
46718;BME280;32448;44.960;-0.698;2023-05-27T07:32:55;101444.00;;;20.24;100.00
46718;BME280;32448;44.960;-0.698;2023-05-27T07:35:25;101444.00;;;20.24;100.00
46718;BME280;32448;44.960;-0.698;2023-05-27T07:37:52;101436.88;;;20.29;100.00
46718;BME280;32448;44.960;-0.698;2023-05-27T07:40:20;101440.91;;;20.60;100.00
46718;BME280;32448;44.960;-0.698;2023-05-27T07:42:47;101438.09;;;20.73;100.00
46718;BME280;32448;44.960;-0.698;2023-05-27T07:45:15;101434.56;;;20.70;100.00
46718;BME280;32448;44.960;-0.698;2023-05-27T07:47:43;101436.84;;;20.96;100.00
46718;BME280;32448;44.960;-0.698;2023-05-27T07:50:10;101439.41;;;21.02;100.00
46718;BME280;32448;44.960;-0.698;2023-05-27T07:52:52;101436.41;;;21.25;100.00
46718;BME280;32448;44.960;-0.698;2023-05-27T07:55:23;101440.72;;;21.32;100.00
46718;BME280;32448;44.960;-0.698;2023-05-27T07:57:50;101436.16;;;21.40;100.00
46718;BME280;32448;44.960;-0.698;2023-05-27T08:00:17;101441.28;;;21.53;100.00
46718;BME280;32448;44.960;-0.698;2023-05-27T08:02:51;101441.19;;;21.57;100.00
46718;BME280;32448;44.960;-0.698;2023-05-27T08:05:22;101436.25;;;21.85;100.00
46718;BME280;32448;44.960;-0.698;2023-05-27T08:08:00;101432.28;;;22.09;100.00
46718;BME280;32448;44.960;-0.698;2023-05-27T08:10:46;101434.88;;;22.10;100.00
46718;BME280;32448;44.960;-0.698;2023-05-27T08:13:39;101432.75;;;22.28;100.00
46718;BME280;32448;44.960;-0.698;2023-05-27T08:16:26;101429.91;;;22.37;100.00
46718;BME280;32448;44.960;-0.698;2023-05-27T08:19:30;101429.66;;;22.47;100.00
46718;BME280;32448;44.960;-0.698;2023-05-27T08:22:13;101443.94;;;22.45;100.00
46718;BME280;32448;44.960;-0.698;2023-05-27T08:25:22;101438.81;;;22.77;100.00
46718;BME280;32448;44.960;-0.698;2023-05-27T08:28:05;101433.22;;;22.88;100.00
46718;BME280;32448;44.960;-0.698;2023-05-27T08:30:54;101423.44;;;22.88;100.00
46718;BME280;32448;44.960;-0.698;2023-05-27T08:33:36;101427.63;;;22.99;100.00
46718;BME280;32448;44.960;-0.698;2023-05-27T08:36:05;101423.34;;;22.93;100.00
46718;BME280;32448;44.960;-0.698;2023-05-27T08:38:33;101425.47;;;23.16;100.00
46718;BME280;32448;44.960;-0.698;2023-05-27T08:41:19;101435.91;;;23.25;100.00
46718;BME280;32448;44.960;-0.698;2023-05-27T08:43:47;101435.25;;;23.52;100.00
46718;BME280;32448;44.960;-0.698;2023-05-27T08:46:18;101426.47;;;23.80;100.00
46718;BME280;32448;44.960;-0.698;2023-05-27T08:48:49;101426.81;;;23.68;100.00
46718;BME280;32448;44.960;-0.698;2023-05-27T08:51:21;101420.81;;;23.92;100.00
46718;BME280;32448;44.960;-0.698;2023-05-27T08:53:49;101420.25;;;24.12;100.00
46718;BME280;32448;44.960;-0.698;2023-05-27T08:56:19;101424.44;;;24.22;100.00
46718;BME280;32448;44.960;-0.698;2023-05-27T08:58:47;101424.53;;;24.48;100.00
46718;BME280;32448;44.960;-0.698;2023-05-27T09:01:17;101425.19;;;24.56;100.00
46718;BME280;32448;44.960;-0.698;2023-05-27T09:03:46;101430.34;;;24.33;100.00
46718;BME280;32448;44.960;-0.698;2023-05-27T09:06:17;101426.28;;;24.49;100.00
46718;BME280;32448;44.960;-0.698;2023-05-27T09:08:49;101427.69;;;24.62;100.00
46718;BME280;32448;44.960;-0.698;2023-05-27T09:11:24;101431.00;;;24.71;100.00
46718;BME280;32448;44.960;-0.698;2023-05-27T09:13:55;101426.22;;;24.80;100.00
46718;BME280;32448;44.960;-0.698;2023-05-27T09:16:26;101414.25;;;25.20;100.00
46718;BME280;32448;44.960;-0.698;2023-05-27T09:18:59;101416.28;;;24.85;100.00
46718;BME280;32448;44.960;-0.698;2023-05-27T09:21:28;101421.06;;;25.03;100.00
46718;BME280;32448;44.960;-0.698;2023-05-27T09:24:02;101420.91;;;25.34;100.00
46718;BME280;32448;44.960;-0.698;2023-05-27T09:26:35;101419.72;;;25.43;100.00
46718;BME280;32448;44.960;-0.698;2023-05-27T09:29:08;101425.19;;;25.40;100.00
46718;BME280;32448;44.960;-0.698;2023-05-27T09:31:42;101414.09;;;25.77;100.00
46718;BME280;32448;44.960;-0.698;2023-05-27T09:34:13;101408.09;;;25.95;100.00
46718;BME280;32448;44.960;-0.698;2023-05-27T09:36:44;101406.63;;;25.85;100.00
46718;BME280;32448;44.960;-0.698;2023-05-27T09:39:13;101411.03;;;25.88;100.00
46718;BME280;32448;44.960;-0.698;2023-05-27T09:41:42;101405.47;;;25.94;100.00
46718;BME280;32448;44.960;-0.698;2023-05-27T09:44:14;101416.16;;;25.94;100.00
46718;BME280;32448;44.960;-0.698;2023-05-27T09:46:43;101416.38;;;25.88;100.00
46718;BME280;32448;44.960;-0.698;2023-05-27T09:49:20;101416.19;;;26.17;100.00
46718;BME280;32448;44.960;-0.698;2023-05-27T09:51:59;101417.19;;;26.15;100.00
46718;BME280;32448;44.960;-0.698;2023-05-27T09:54:43;101407.88;;;26.25;100.00
46718;BME280;32448;44.960;-0.698;2023-05-27T09:57:12;101413.72;;;26.36;100.00
46718;BME280;32448;44.960;-0.698;2023-05-27T09:59:51;101412.44;;;26.46;100.00
46718;BME280;32448;44.960;-0.698;2023-05-27T10:02:25;101406.59;;;26.58;100.00
46718;BME280;32448;44.960;-0.698;2023-05-27T10:04:54;101405.75;;;26.79;100.00
46718;BME280;32448;44.960;-0.698;2023-05-27T10:07:24;101405.25;;;26.92;100.00
46718;BME280;32448;44.960;-0.698;2023-05-27T10:10:02;101400.59;;;26.97;100.00
46718;BME280;32448;44.960;-0.698;2023-05-27T10:12:29;101407.19;;;27.10;100.00
46718;BME280;32448;44.960;-0.698;2023-05-27T10:14:58;101410.38;;;27.40;100.00
46718;BME280;32448;44.960;-0.698;2023-05-27T10:17:25;101405.81;;;27.64;100.00
46718;BME280;32448;44.960;-0.698;2023-05-27T10:19:54;101404.00;;;27.64;100.00
46718;BME280;32448;44.960;-0.698;2023-05-27T10:22:23;101402.91;;;27.48;100.00
46718;BME280;32448;44.960;-0.698;2023-05-27T10:24:56;101399.78;;;27.59;100.00
46718;BME280;32448;44.960;-0.698;2023-05-27T10:27:41;101395.59;;;27.92;100.00
46718;BME280;32448;44.960;-0.698;2023-05-27T10:30:09;101399.91;;;27.76;100.00
46718;BME280;32448;44.960;-0.698;2023-05-27T10:32:44;101400.03;;;27.73;100.00
46718;BME280;32448;44.960;-0.698;2023-05-27T10:35:16;101399.03;;;27.75;100.00
46718;BME280;32448;44.960;-0.698;2023-05-27T10:37:46;101399.59;;;27.83;100.00
46718;BME280;32448;44.960;-0.698;2023-05-27T10:40:23;101402.72;;;27.73;100.00
46718;BME280;32448;44.960;-0.698;2023-05-27T10:42:59;101394.19;;;27.63;100.00
46718;BME280;32448;44.960;-0.698;2023-05-27T10:45:31;101393.13;;;27.67;100.00
46718;BME280;32448;44.960;-0.698;2023-05-27T10:48:01;101396.28;;;27.77;100.00
46718;BME280;32448;44.960;-0.698;2023-05-27T10:50:31;101391.03;;;27.94;100.00
46718;BME280;32448;44.960;-0.698;2023-05-27T10:53:02;101393.94;;;27.69;100.00
46718;BME280;32448;44.960;-0.698;2023-05-27T10:55:33;101386.72;;;27.90;100.00
46718;BME280;32448;44.960;-0.698;2023-05-27T10:58:05;101388.34;;;27.94;100.00
46718;BME280;32448;44.960;-0.698;2023-05-27T11:00:34;101384.00;;;28.10;100.00
46718;BME280;32448;44.960;-0.698;2023-05-27T11:03:02;101376.06;;;28.46;100.00
46718;BME280;32448;44.960;-0.698;2023-05-27T11:05:31;101377.56;;;28.52;100.00
46718;BME280;32448;44.960;-0.698;2023-05-27T11:07:59;101377.06;;;28.62;100.00
46718;BME280;32448;44.960;-0.698;2023-05-27T11:10:28;101376.88;;;28.48;100.00
46718;BME280;32448;44.960;-0.698;2023-05-27T11:12:57;101378.59;;;28.68;100.00
46718;BME280;32448;44.960;-0.698;2023-05-27T11:15:25;101369.19;;;28.77;100.00
46718;BME280;32448;44.960;-0.698;2023-05-27T11:17:59;101373.59;;;28.96;100.00
46718;BME280;32448;44.960;-0.698;2023-05-27T11:20:37;101366.81;;;29.07;100.00
46718;BME280;32448;44.960;-0.698;2023-05-27T11:23:06;101362.00;;;29.13;100.00
46718;BME280;32448;44.960;-0.698;2023-05-27T11:25:43;101356.16;;;29.40;100.00
46718;BME280;32448;44.960;-0.698;2023-05-27T11:28:16;101365.03;;;29.42;100.00
46718;BME280;32448;44.960;-0.698;2023-05-27T11:30:44;101359.56;;;29.43;89.66
46718;BME280;32448;44.960;-0.698;2023-05-27T11:33:18;101357.22;;;29.37;92.17
46718;BME280;32448;44.960;-0.698;2023-05-27T11:36:06;101343.16;;;29.30;100.00
46718;BME280;32448;44.960;-0.698;2023-05-27T11:38:48;101351.47;;;29.26;100.00
46718;BME280;32448;44.960;-0.698;2023-05-27T11:41:21;101340.78;;;29.42;100.00
46718;BME280;32448;44.960;-0.698;2023-05-27T11:43:51;101347.53;;;29.50;95.53
46718;BME280;32448;44.960;-0.698;2023-05-27T11:46:20;101334.31;;;29.46;100.00
46718;BME280;32448;44.960;-0.698;2023-05-27T11:48:49;101333.16;;;29.67;94.83
46718;BME280;32448;44.960;-0.698;2023-05-27T11:51:25;101326.53;;;29.57;100.00
46718;BME280;32448;44.960;-0.698;2023-05-27T11:53:54;101332.41;;;29.48;100.00
46718;BME280;32448;44.960;-0.698;2023-05-27T11:56:22;101323.03;;;29.55;99.62
46718;BME280;32448;44.960;-0.698;2023-05-27T11:58:49;101323.09;;;29.71;82.31
46718;BME280;32448;44.960;-0.698;2023-05-27T12:01:17;101319.69;;;29.67;81.77
46718;BME280;32448;44.960;-0.698;2023-05-27T12:03:46;101317.38;;;29.77;89.85
46718;BME280;32448;44.960;-0.698;2023-05-27T12:06:13;101313.81;;;29.76;96.18
46718;BME280;32448;44.960;-0.698;2023-05-27T12:08:42;101316.53;;;29.92;95.36
46718;BME280;32448;44.960;-0.698;2023-05-27T12:11:09;101315.78;;;30.05;91.29
46718;BME280;32448;44.960;-0.698;2023-05-27T12:13:37;101311.97;;;30.10;93.36
46718;BME280;32448;44.960;-0.698;2023-05-27T12:16:05;101301.53;;;30.19;97.39
46718;BME280;32448;44.960;-0.698;2023-05-27T12:18:32;101294.25;;;30.37;75.62
46718;BME280;32448;44.960;-0.698;2023-05-27T12:21:00;101296.06;;;30.36;71.72
46718;BME280;32448;44.960;-0.698;2023-05-27T12:23:28;101290.84;;;30.33;80.12
46718;BME280;32448;44.960;-0.698;2023-05-27T12:25:56;101291.19;;;30.43;95.94
46718;BME280;32448;44.960;-0.698;2023-05-27T12:28:24;101289.00;;;30.50;66.10
46718;BME280;32448;44.960;-0.698;2023-05-27T12:30:52;101283.88;;;30.45;71.09
46718;BME280;32448;44.960;-0.698;2023-05-27T12:33:20;101277.03;;;30.24;70.63
46718;BME280;32448;44.960;-0.698;2023-05-27T12:35:49;101277.00;;;30.39;71.32
46718;BME280;32448;44.960;-0.698;2023-05-27T12:38:20;101285.44;;;30.65;85.68
46718;BME280;32448;44.960;-0.698;2023-05-27T12:40:51;101272.97;;;30.78;82.75
46718;BME280;32448;44.960;-0.698;2023-05-27T12:43:18;101270.19;;;31.09;87.30
46718;BME280;32448;44.960;-0.698;2023-05-27T12:45:48;101273.03;;;31.22;66.70
46718;BME280;32448;44.960;-0.698;2023-05-27T12:48:18;101279.16;;;31.10;65.61
46718;BME280;32448;44.960;-0.698;2023-05-27T12:50:52;101269.72;;;30.87;54.67
46718;BME280;32448;44.960;-0.698;2023-05-27T12:53:20;101272.50;;;30.86;56.54
46718;BME280;32448;44.960;-0.698;2023-05-27T12:55:47;101268.28;;;30.96;67.22